sensor_id;sensor_type;location;lat;lon;timestamp;temperature;humidity
47857;DHT22;33618;49.972;8.242;2023-07-13T00:01:06;20.40;67.00
47857;DHT22;33618;49.972;8.242;2023-07-13T00:03:33;20.40;67.50
47857;DHT22;33618;49.972;8.242;2023-07-13T00:06:02;20.30;67.20
47857;DHT22;33618;49.972;8.242;2023-07-13T00:08:31;20.30;67.50
47857;DHT22;33618;49.972;8.242;2023-07-13T00:11:03;20.30;67.70
47857;DHT22;33618;49.972;8.242;2023-07-13T00:13:30;20.20;67.90
47857;DHT22;33618;49.972;8.242;2023-07-13T00:15:58;20.20;68.00
47857;DHT22;33618;49.972;8.242;2023-07-13T00:18:25;20.10;68.10
47857;DHT22;33618;49.972;8.242;2023-07-13T00:20:52;20.10;68.20
47857;DHT22;33618;49.972;8.242;2023-07-13T00:23:19;20.00;68.70
47857;DHT22;33618;49.972;8.242;2023-07-13T00:25:46;20.00;69.40
47857;DHT22;33618;49.972;8.242;2023-07-13T00:28:13;20.00;69.10
47857;DHT22;33618;49.972;8.242;2023-07-13T00:30:40;20.00;69.00
47857;DHT22;33618;49.972;8.242;2023-07-13T00:33:06;19.90;68.80
47857;DHT22;33618;49.972;8.242;2023-07-13T00:35:44;19.80;69.20
47857;DHT22;33618;49.972;8.242;2023-07-13T00:38:11;19.80;69.30
47857;DHT22;33618;49.972;8.242;2023-07-13T00:40:38;19.70;69.60
47857;DHT22;33618;49.972;8.242;2023-07-13T00:43:15;19.70;69.80
47857;DHT22;33618;49.972;8.242;2023-07-13T00:48:16;19.70;69.90
47857;DHT22;33618;49.972;8.242;2023-07-13T00:50:44;19.70;69.90
47857;DHT22;33618;49.972;8.242;2023-07-13T00:53:13;19.60;70.30
47857;DHT22;33618;49.972;8.242;2023-07-13T00:55:40;19.50;70.60
47857;DHT22;33618;49.972;8.242;2023-07-13T00:58:07;19.50;71.10
47857;DHT22;33618;49.972;8.242;2023-07-13T01:00:36;19.50;71.20
47857;DHT22;33618;49.972;8.242;2023-07-13T01:03:05;19.50;71.20
47857;DHT22;33618;49.972;8.242;2023-07-13T01:05:34;19.40;71.10
47857;DHT22;33618;49.972;8.242;2023-07-13T01:08:02;19.40;71.20
47857;DHT22;33618;49.972;8.242;2023-07-13T01:10:32;19.30;71.60
47857;DHT22;33618;49.972;8.242;2023-07-13T01:13:10;19.20;71.80
47857;DHT22;33618;49.972;8.242;2023-07-13T01:15:45;19.20;72.70
47857;DHT22;33618;49.972;8.242;2023-07-13T01:18:21;19.20;72.60
47857;DHT22;33618;49.972;8.242;2023-07-13T01:20:55;19.10;72.30
47857;DHT22;33618;49.972;8.242;2023-07-13T01:23:23;19.10;72.20
47857;DHT22;33618;49.972;8.242;2023-07-13T01:25:51;19.10;73.40
47857;DHT22;33618;49.972;8.242;2023-07-13T01:28:19;19.10;72.50
47857;DHT22;33618;49.972;8.242;2023-07-13T01:30:46;19.10;72.60
47857;DHT22;33618;49.972;8.242;2023-07-13T01:33:16;19.10;72.90
47857;DHT22;33618;49.972;8.242;2023-07-13T01:35:44;19.10;72.90
47857;DHT22;33618;49.972;8.242;2023-07-13T01:38:15;19.00;72.30
47857;DHT22;33618;49.972;8.242;2023-07-13T01:40:42;18.90;72.70
47857;DHT22;33618;49.972;8.242;2023-07-13T01:43:10;18.90;73.80
47857;DHT22;33618;49.972;8.242;2023-07-13T01:45:37;19.00;72.40
47857;DHT22;33618;49.972;8.242;2023-07-13T01:48:05;19.00;73.30
47857;DHT22;33618;49.972;8.242;2023-07-13T01:50:34;19.00;72.90
47857;DHT22;33618;49.972;8.242;2023-07-13T01:53:01;19.00;73.60
47857;DHT22;33618;49.972;8.242;2023-07-13T01:55:29;19.00;73.00
47857;DHT22;33618;49.972;8.242;2023-07-13T01:57:57;18.90;72.70
47857;DHT22;33618;49.972;8.242;2023-07-13T02:00:24;18.90;72.50
47857;DHT22;33618;49.972;8.242;2023-07-13T02:02:51;18.90;74.20
47857;DHT22;33618;49.972;8.242;2023-07-13T02:05:19;19.00;74.10
47857;DHT22;33618;49.972;8.242;2023-07-13T02:07:46;19.00;72.80
47857;DHT22;33618;49.972;8.242;2023-07-13T02:10:13;18.80;74.10
47857;DHT22;33618;49.972;8.242;2023-07-13T02:12:41;18.90;74.00
47857;DHT22;33618;49.972;8.242;2023-07-13T02:15:08;18.90;74.00
47857;DHT22;33618;49.972;8.242;2023-07-13T02:17:36;19.00;74.40
47857;DHT22;33618;49.972;8.242;2023-07-13T02:20:04;19.10;74.50
47857;DHT22;33618;49.972;8.242;2023-07-13T02:22:31;19.00;72.00
47857;DHT22;33618;49.972;8.242;2023-07-13T02:24:58;18.90;72.30
47857;DHT22;33618;49.972;8.242;2023-07-13T02:27:25;18.90;72.50
47857;DHT22;33618;49.972;8.242;2023-07-13T02:29:53;18.80;72.50
47857;DHT22;33618;49.972;8.242;2023-07-13T02:32:20;18.60;72.40
47857;DHT22;33618;49.972;8.242;2023-07-13T02:34:47;18.60;72.30
47857;DHT22;33618;49.972;8.242;2023-07-13T02:37:14;18.60;74.30
47857;DHT22;33618;49.972;8.242;2023-07-13T02:39:41;18.60;73.10
47857;DHT22;33618;49.972;8.242;2023-07-13T02:42:08;18.70;74.10
47857;DHT22;33618;49.972;8.242;2023-07-13T02:44:35;18.70;72.60
47857;DHT22;33618;49.972;8.242;2023-07-13T02:47:02;18.60;72.40
47857;DHT22;33618;49.972;8.242;2023-07-13T02:49:29;18.50;72.80
47857;DHT22;33618;49.972;8.242;2023-07-13T02:51:57;18.40;72.90
47857;DHT22;33618;49.972;8.242;2023-07-13T02:54:24;18.40;72.20
47857;DHT22;33618;49.972;8.242;2023-07-13T02:56:50;18.30;72.50
47857;DHT22;33618;49.972;8.242;2023-07-13T02:59:17;18.30;73.20
47857;DHT22;33618;49.972;8.242;2023-07-13T03:01:44;18.30;73.00
47857;DHT22;33618;49.972;8.242;2023-07-13T03:04:11;18.30;73.00
47857;DHT22;33618;49.972;8.242;2023-07-13T03:06:39;18.20;73.40
47857;DHT22;33618;49.972;8.242;2023-07-13T03:09:06;18.10;73.30
47857;DHT22;33618;49.972;8.242;2023-07-13T03:11:33;18.10;74.80
47857;DHT22;33618;49.972;8.242;2023-07-13T03:14:00;18.00;74.40
47857;DHT22;33618;49.972;8.242;2023-07-13T03:16:27;18.00;73.90
47857;DHT22;33618;49.972;8.242;2023-07-13T03:18:54;17.90;73.90
47857;DHT22;33618;49.972;8.242;2023-07-13T03:21:21;17.90;76.90
47857;DHT22;33618;49.972;8.242;2023-07-13T03:23:48;18.10;73.80
47857;DHT22;33618;49.972;8.242;2023-07-13T03:26:17;18.20;74.80
47857;DHT22;33618;49.972;8.242;2023-07-13T03:28:45;18.30;75.90
47857;DHT22;33618;49.972;8.242;2023-07-13T03:31:21;18.40;72.40
47857;DHT22;33618;49.972;8.242;2023-07-13T03:33:51;18.30;73.20
47857;DHT22;33618;49.972;8.242;2023-07-13T03:36:21;18.30;74.10
47857;DHT22;33618;49.972;8.242;2023-07-13T03:38:52;18.60;74.40
47857;DHT22;33618;49.972;8.242;2023-07-13T03:41:20;18.90;73.80
47857;DHT22;33618;49.972;8.242;2023-07-13T03:43:47;19.00;73.00
47857;DHT22;33618;49.972;8.242;2023-07-13T03:46:15;19.30;72.90
47857;DHT22;33618;49.972;8.242;2023-07-13T03:48:45;19.40;72.40
47857;DHT22;33618;49.972;8.242;2023-07-13T03:51:14;19.40;72.60
47857;DHT22;33618;49.972;8.242;2023-07-13T03:53:44;19.50;72.60
47857;DHT22;33618;49.972;8.242;2023-07-13T03:56:11;19.30;72.60
47857;DHT22;33618;49.972;8.242;2023-07-13T03:58:41;19.40;73.00
47857;DHT22;33618;49.972;8.242;2023-07-13T04:01:10;19.30;72.00
47857;DHT22;33618;49.972;8.242;2023-07-13T04:03:37;19.20;71.20
47857;DHT22;33618;49.972;8.242;2023-07-13T04:06:07;18.90;72.50
47857;DHT22;33618;49.972;8.242;2023-07-13T04:08:36;18.50;72.20
47857;DHT22;33618;49.972;8.242;2023-07-13T04:11:04;18.40;73.40
47857;DHT22;33618;49.972;8.242;2023-07-13T04:13:31;18.20;73.40
47857;DHT22;33618;49.972;8.242;2023-07-13T04:15:58;18.00;75.10
47857;DHT22;33618;49.972;8.242;2023-07-13T04:18:25;18.00;74.70
47857;DHT22;33618;49.972;8.242;2023-07-13T04:20:52;17.80;75.20
47857;DHT22;33618;49.972;8.242;2023-07-13T04:23:19;17.80;76.00
47857;DHT22;33618;49.972;8.242;2023-07-13T04:25:46;17.80;75.70
47857;DHT22;33618;49.972;8.242;2023-07-13T04:28:16;17.70;75.90
47857;DHT22;33618;49.972;8.242;2023-07-13T04:30:44;17.80;75.70
47857;DHT22;33618;49.972;8.242;2023-07-13T04:33:11;17.80;76.50
47857;DHT22;33618;49.972;8.242;2023-07-13T04:35:38;17.80;76.10
47857;DHT22;33618;49.972;8.242;2023-07-13T04:38:05;17.70;76.30
47857;DHT22;33618;49.972;8.242;2023-07-13T04:40:33;17.80;76.50
47857;DHT22;33618;49.972;8.242;2023-07-13T04:43:00;17.80;76.80
47857;DHT22;33618;49.972;8.242;2023-07-13T04:45:26;17.80;77.40
47857;DHT22;33618;49.972;8.242;2023-07-13T04:47:53;18.00;76.90
47857;DHT22;33618;49.972;8.242;2023-07-13T04:50:20;18.00;76.40
47857;DHT22;33618;49.972;8.242;2023-07-13T04:52:50;17.90;77.20
47857;DHT22;33618;49.972;8.242;2023-07-13T04:55:18;17.90;77.70
47857;DHT22;33618;49.972;8.242;2023-07-13T04:57:46;17.90;78.60
47857;DHT22;33618;49.972;8.242;2023-07-13T05:00:14;17.80;78.80
47857;DHT22;33618;49.972;8.242;2023-07-13T05:02:44;17.80;78.90
47857;DHT22;33618;49.972;8.242;2023-07-13T05:05:13;17.80;78.80
47857;DHT22;33618;49.972;8.242;2023-07-13T05:07:40;17.80;79.00
47857;DHT22;33618;49.972;8.242;2023-07-13T05:10:07;17.80;79.00
47857;DHT22;33618;49.972;8.242;2023-07-13T05:12:34;18.00;78.20
47857;DHT22;33618;49.972;8.242;2023-07-13T05:15:02;18.10;78.40
47857;DHT22;33618;49.972;8.242;2023-07-13T05:17:29;18.20;77.50
47857;DHT22;33618;49.972;8.242;2023-07-13T05:19:56;18.40;76.60
47857;DHT22;33618;49.972;8.242;2023-07-13T05:22:23;18.40;75.10
47857;DHT22;33618;49.972;8.242;2023-07-13T05:24:50;18.60;74.60
47857;DHT22;33618;49.972;8.242;2023-07-13T05:27:17;18.60;74.50
47857;DHT22;33618;49.972;8.242;2023-07-13T05:29:43;18.70;73.80
47857;DHT22;33618;49.972;8.242;2023-07-13T05:32:11;18.70;74.20
47857;DHT22;33618;49.972;8.242;2023-07-13T05:34:37;18.80;74.20
47857;DHT22;33618;49.972;8.242;2023-07-13T05:37:05;18.80;74.30
47857;DHT22;33618;49.972;8.242;2023-07-13T05:39:32;18.90;74.40
47857;DHT22;33618;49.972;8.242;2023-07-13T05:41:58;19.00;73.80
47857;DHT22;33618;49.972;8.242;2023-07-13T05:44:25;19.20;83.80
47857;DHT22;33618;49.972;8.242;2023-07-13T05:46:52;19.20;84.60
47857;DHT22;33618;49.972;8.242;2023-07-13T05:49:19;19.30;84.70
47857;DHT22;33618;49.972;8.242;2023-07-13T05:51:46;19.30;85.20
47857;DHT22;33618;49.972;8.242;2023-07-13T05:54:13;19.30;85.50
47857;DHT22;33618;49.972;8.242;2023-07-13T05:56:40;19.50;84.20
47857;DHT22;33618;49.972;8.242;2023-07-13T05:59:07;19.50;84.70
47857;DHT22;33618;49.972;8.242;2023-07-13T06:01:33;19.60;84.40
47857;DHT22;33618;49.972;8.242;2023-07-13T06:04:00;19.60;84.10
47857;DHT22;33618;49.972;8.242;2023-07-13T06:06:27;19.60;83.80
47857;DHT22;33618;49.972;8.242;2023-07-13T06:08:54;19.60;82.90
47857;DHT22;33618;49.972;8.242;2023-07-13T06:11:24;19.70;83.40
47857;DHT22;33618;49.972;8.242;2023-07-13T06:13:51;19.80;82.60
47857;DHT22;33618;49.972;8.242;2023-07-13T06:16:18;19.80;82.20
47857;DHT22;33618;49.972;8.242;2023-07-13T06:18:46;19.90;82.00
47857;DHT22;33618;49.972;8.242;2023-07-13T06:21:21;19.90;81.90
47857;DHT22;33618;49.972;8.242;2023-07-13T06:23:50;20.00;82.10
47857;DHT22;33618;49.972;8.242;2023-07-13T06:26:19;20.20;81.80
47857;DHT22;33618;49.972;8.242;2023-07-13T06:28:47;20.10;80.40
47857;DHT22;33618;49.972;8.242;2023-07-13T06:31:14;20.10;81.00
47857;DHT22;33618;49.972;8.242;2023-07-13T06:33:41;20.10;81.60
47857;DHT22;33618;49.972;8.242;2023-07-13T06:36:09;20.40;80.70
47857;DHT22;33618;49.972;8.242;2023-07-13T06:38:36;20.30;80.50
47857;DHT22;33618;49.972;8.242;2023-07-13T06:41:04;20.30;80.70
47857;DHT22;33618;49.972;8.242;2023-07-13T06:43:31;20.30;80.70
47857;DHT22;33618;49.972;8.242;2023-07-13T06:45:59;20.50;80.50
47857;DHT22;33618;49.972;8.242;2023-07-13T06:48:26;20.60;80.30
47857;DHT22;33618;49.972;8.242;2023-07-13T06:50:53;20.40;79.90
47857;DHT22;33618;49.972;8.242;2023-07-13T06:53:20;20.50;81.00
47857;DHT22;33618;49.972;8.242;2023-07-13T06:55:47;20.60;80.20
47857;DHT22;33618;49.972;8.242;2023-07-13T06:58:18;20.50;79.90
47857;DHT22;33618;49.972;8.242;2023-07-13T07:00:45;20.50;80.20
47857;DHT22;33618;49.972;8.242;2023-07-13T07:03:13;20.40;80.60
47857;DHT22;33618;49.972;8.242;2023-07-13T07:05:40;20.60;80.50
47857;DHT22;33618;49.972;8.242;2023-07-13T07:08:07;20.70;81.00
47857;DHT22;33618;49.972;8.242;2023-07-13T07:10:34;20.80;80.70
47857;DHT22;33618;49.972;8.242;2023-07-13T07:13:02;20.80;80.10
47857;DHT22;33618;49.972;8.242;2023-07-13T07:15:29;21.00;80.80
47857;DHT22;33618;49.972;8.242;2023-07-13T07:17:56;21.50;80.40
47857;DHT22;33618;49.972;8.242;2023-07-13T07:20:23;21.60;79.50
47857;DHT22;33618;49.972;8.242;2023-07-13T07:22:50;21.40;78.60
47857;DHT22;33618;49.972;8.242;2023-07-13T07:25:19;21.30;78.50
47857;DHT22;33618;49.972;8.242;2023-07-13T07:27:46;21.40;78.20
47857;DHT22;33618;49.972;8.242;2023-07-13T07:30:15;21.40;78.20
47857;DHT22;33618;49.972;8.242;2023-07-13T07:32:45;21.30;77.70
47857;DHT22;33618;49.972;8.242;2023-07-13T07:35:15;21.30;77.90
47857;DHT22;33618;49.972;8.242;2023-07-13T07:37:42;21.50;78.00
47857;DHT22;33618;49.972;8.242;2023-07-13T07:40:12;21.80;77.10
47857;DHT22;33618;49.972;8.242;2023-07-13T07:42:42;21.90;75.80
47857;DHT22;33618;49.972;8.242;2023-07-13T07:45:09;21.80;75.80
47857;DHT22;33618;49.972;8.242;2023-07-13T07:47:38;22.10;75.90
47857;DHT22;33618;49.972;8.242;2023-07-13T07:50:05;22.00;75.40
47857;DHT22;33618;49.972;8.242;2023-07-13T07:52:32;22.10;75.00
47857;DHT22;33618;49.972;8.242;2023-07-13T07:55:00;21.80;74.70
47857;DHT22;33618;49.972;8.242;2023-07-13T07:57:33;22.00;74.70
47857;DHT22;33618;49.972;8.242;2023-07-13T08:00:20;21.80;74.40
47857;DHT22;33618;49.972;8.242;2023-07-13T08:02:50;21.80;74.80
47857;DHT22;33618;49.972;8.242;2023-07-13T08:05:20;21.90;75.00
47857;DHT22;33618;49.972;8.242;2023-07-13T08:08:03;22.00;74.50
47857;DHT22;33618;49.972;8.242;2023-07-13T08:10:30;22.20;74.70
47857;DHT22;33618;49.972;8.242;2023-07-13T08:12:57;22.30;74.00
47857;DHT22;33618;49.972;8.242;2023-07-13T08:15:26;22.40;73.00
47857;DHT22;33618;49.972;8.242;2023-07-13T08:17:53;22.40;71.80
47857;DHT22;33618;49.972;8.242;2023-07-13T08:20:23;22.20;71.80
47857;DHT22;33618;49.972;8.242;2023-07-13T08:22:50;22.10;72.10
47857;DHT22;33618;49.972;8.242;2023-07-13T08:25:17;22.10;72.50
47857;DHT22;33618;49.972;8.242;2023-07-13T08:27:44;22.20;72.40
47857;DHT22;33618;49.972;8.242;2023-07-13T08:30:11;22.30;72.30
47857;DHT22;33618;49.972;8.242;2023-07-13T08:32:38;22.50;72.90
47857;DHT22;33618;49.972;8.242;2023-07-13T08:35:05;22.70;72.30
47857;DHT22;33618;49.972;8.242;2023-07-13T08:37:32;22.70;72.30
47857;DHT22;33618;49.972;8.242;2023-07-13T08:39:59;22.60;71.80
47857;DHT22;33618;49.972;8.242;2023-07-13T08:42:54;22.70;72.00
47857;DHT22;33618;49.972;8.242;2023-07-13T08:45:28;22.80;71.40
47857;DHT22;33618;49.972;8.242;2023-07-13T08:48:53;22.80;71.20
47857;DHT22;33618;49.972;8.242;2023-07-13T08:51:31;22.90;70.40
47857;DHT22;33618;49.972;8.242;2023-07-13T08:54:05;23.00;70.80
47857;DHT22;33618;49.972;8.242;2023-07-13T08:56:35;22.90;70.00
47857;DHT22;33618;49.972;8.242;2023-07-13T08:59:17;23.00;69.20
47857;DHT22;33618;49.972;8.242;2023-07-13T09:12:19;23.50;69.10
47857;DHT22;33618;49.972;8.242;2023-07-13T09:14:50;23.60;68.90
47857;DHT22;33618;49.972;8.242;2023-07-13T09:17:34;23.70;68.70
47857;DHT22;33618;49.972;8.242;2023-07-13T09:20:20;23.70;68.40
47857;DHT22;33618;49.972;8.242;2023-07-13T09:22:49;23.80;67.90
47857;DHT22;33618;49.972;8.242;2023-07-13T09:25:30;24.00;67.60
47857;DHT22;33618;49.972;8.242;2023-07-13T09:28:09;24.10;67.40
47857;DHT22;33618;49.972;8.242;2023-07-13T09:33:04;24.50;67.00
47857;DHT22;33618;49.972;8.242;2023-07-13T09:35:31;24.50;66.50
47857;DHT22;33618;49.972;8.242;2023-07-13T09:38:14;24.70;66.60
47857;DHT22;33618;49.972;8.242;2023-07-13T09:43:38;25.30;65.90
47857;DHT22;33618;49.972;8.242;2023-07-13T09:46:23;25.60;66.10
47857;DHT22;33618;49.972;8.242;2023-07-13T09:48:50;26.20;65.80
47857;DHT22;33618;49.972;8.242;2023-07-13T09:51:17;26.50;65.30
47857;DHT22;33618;49.972;8.242;2023-07-13T09:53:44;26.70;64.90
47857;DHT22;33618;49.972;8.242;2023-07-13T09:56:22;26.90;64.90
47857;DHT22;33618;49.972;8.242;2023-07-13T09:58:50;26.70;64.10
47857;DHT22;33618;49.972;8.242;2023-07-13T10:01:34;26.90;64.90
47857;DHT22;33618;49.972;8.242;2023-07-13T10:04:11;27.30;65.10
47857;DHT22;33618;49.972;8.242;2023-07-13T10:06:39;27.80;64.60
47857;DHT22;33618;49.972;8.242;2023-07-13T10:09:10;28.30;65.10
47857;DHT22;33618;49.972;8.242;2023-07-13T10:11:41;28.10;64.50
47857;DHT22;33618;49.972;8.242;2023-07-13T10:14:21;27.90;63.30
47857;DHT22;33618;49.972;8.242;2023-07-13T10:17:01;27.40;64.10
47857;DHT22;33618;49.972;8.242;2023-07-13T10:19:32;27.00;64.00
47857;DHT22;33618;49.972;8.242;2023-07-13T10:22:11;26.90;64.60
47857;DHT22;33618;49.972;8.242;2023-07-13T10:24:41;27.60;64.50
47857;DHT22;33618;49.972;8.242;2023-07-13T10:27:17;28.00;64.20
47857;DHT22;33618;49.972;8.242;2023-07-13T10:32:14;27.70;64.10
47857;DHT22;33618;49.972;8.242;2023-07-13T10:34:44;27.60;64.10
47857;DHT22;33618;49.972;8.242;2023-07-13T10:37:38;27.60;64.60
47857;DHT22;33618;49.972;8.242;2023-07-13T10:40:20;27.30;64.10
47857;DHT22;33618;49.972;8.242;2023-07-13T10:42:51;26.80;64.50
47857;DHT22;33618;49.972;8.242;2023-07-13T10:45:22;26.50;64.40
47857;DHT22;33618;49.972;8.242;2023-07-13T11:04:18;26.80;63.70
47857;DHT22;33618;49.972;8.242;2023-07-13T11:06:48;26.80;64.50
47857;DHT22;33618;49.972;8.242;2023-07-13T11:09:39;26.60;64.40
47857;DHT22;33618;49.972;8.242;2023-07-13T11:12:29;26.70;63.70
47857;DHT22;33618;49.972;8.242;2023-07-13T11:15:15;27.00;63.00
47857;DHT22;33618;49.972;8.242;2023-07-13T11:17:54;27.40;63.30
47857;DHT22;33618;49.972;8.242;2023-07-13T11:20:34;28.20;63.30
47857;DHT22;33618;49.972;8.242;2023-07-13T11:25:44;28.50;62.00
47857;DHT22;33618;49.972;8.242;2023-07-13T11:36:36;28.80;61.50
47857;DHT22;33618;49.972;8.242;2023-07-13T11:41:50;28.90;61.80
47857;DHT22;33618;49.972;8.242;2023-07-13T11:44:27;29.30;61.30
47857;DHT22;33618;49.972;8.242;2023-07-13T11:46:59;29.20;60.80
47857;DHT22;33618;49.972;8.242;2023-07-13T11:49:31;28.60;61.20
47857;DHT22;33618;49.972;8.242;2023-07-13T11:52:00;28.50;61.60
47857;DHT22;33618;49.972;8.242;2023-07-13T11:54:29;28.20;61.80
47857;DHT22;33618;49.972;8.242;2023-07-13T11:57:03;28.00;62.70
47857;DHT22;33618;49.972;8.242;2023-07-13T11:59:38;27.80;62.00
47857;DHT22;33618;49.972;8.242;2023-07-13T12:02:16;27.50;62.10
47857;DHT22;33618;49.972;8.242;2023-07-13T12:04:44;27.00;62.80
47857;DHT22;33618;49.972;8.242;2023-07-13T12:07:17;27.00;63.10
47857;DHT22;33618;49.972;8.242;2023-07-13T12:09:47;27.10;62.60
47857;DHT22;33618;49.972;8.242;2023-07-13T12:12:21;26.90;62.50
47857;DHT22;33618;49.972;8.242;2023-07-13T12:14:54;26.60;62.60
47857;DHT22;33618;49.972;8.242;2023-07-13T12:17:23;26.50;62.70
47857;DHT22;33618;49.972;8.242;2023-07-13T12:19:51;26.30;62.60
47857;DHT22;33618;49.972;8.242;2023-07-13T12:22:20;26.10;62.90
47857;DHT22;33618;49.972;8.242;2023-07-13T12:24:48;26.10;62.80
47857;DHT22;33618;49.972;8.242;2023-07-13T12:27:25;26.20;63.50
47857;DHT22;33618;49.972;8.242;2023-07-13T12:29:58;26.40;63.10
47857;DHT22;33618;49.972;8.242;2023-07-13T12:32:27;26.50;62.80
47857;DHT22;33618;49.972;8.242;2023-07-13T12:35:13;26.30;63.20
47857;DHT22;33618;49.972;8.242;2023-07-13T12:37:45;26.30;63.20
47857;DHT22;33618;49.972;8.242;2023-07-13T12:40:32;26.50;63.50
47857;DHT22;33618;49.972;8.242;2023-07-13T12:43:03;26.50;63.10
47857;DHT22;33618;49.972;8.242;2023-07-13T12:45:33;26.60;62.80
47857;DHT22;33618;49.972;8.242;2023-07-13T12:48:10;26.80;63.50
47857;DHT22;33618;49.972;8.242;2023-07-13T12:50:42;26.90;62.90
47857;DHT22;33618;49.972;8.242;2023-07-13T12:53:14;26.90;62.60
47857;DHT22;33618;49.972;8.242;2023-07-13T12:55:43;27.10;62.20
47857;DHT22;33618;49.972;8.242;2023-07-13T12:58:21;26.90;62.70
47857;DHT22;33618;49.972;8.242;2023-07-13T13:00:54;26.90;62.80
47857;DHT22;33618;49.972;8.242;2023-07-13T13:03:31;26.90;62.90
47857;DHT22;33618;49.972;8.242;2023-07-13T13:08:41;26.40;62.80
47857;DHT22;33618;49.972;8.242;2023-07-13T13:11:10;26.20;63.20
47857;DHT22;33618;49.972;8.242;2023-07-13T13:13:37;26.30;63.20
47857;DHT22;33618;49.972;8.242;2023-07-13T13:16:34;26.40;63.00
47857;DHT22;33618;49.972;8.242;2023-07-13T13:21:37;26.10;62.90
47857;DHT22;33618;49.972;8.242;2023-07-13T13:24:13;26.00;63.10
47857;DHT22;33618;49.972;8.242;2023-07-13T13:26:42;26.00;63.30
47857;DHT22;33618;49.972;8.242;2023-07-13T13:29:18;26.00;63.80
47857;DHT22;33618;49.972;8.242;2023-07-13T13:31:46;25.80;63.40
47857;DHT22;33618;49.972;8.242;2023-07-13T13:34:15;25.70;63.40
47857;DHT22;33618;49.972;8.242;2023-07-13T13:36:43;25.80;63.40
47857;DHT22;33618;49.972;8.242;2023-07-13T13:39:23;25.70;63.40
47857;DHT22;33618;49.972;8.242;2023-07-13T13:41:52;25.50;63.60
47857;DHT22;33618;49.972;8.242;2023-07-13T13:44:20;25.60;63.90
47857;DHT22;33618;49.972;8.242;2023-07-13T13:46:52;25.80;62.80
47857;DHT22;33618;49.972;8.242;2023-07-13T13:49:24;26.10;62.80
47857;DHT22;33618;49.972;8.242;2023-07-13T13:51:53;26.30;62.90
47857;DHT22;33618;49.972;8.242;2023-07-13T13:54:21;26.70;63.20
47857;DHT22;33618;49.972;8.242;2023-07-13T13:56:50;26.50;62.40
47857;DHT22;33618;49.972;8.242;2023-07-13T13:59:18;26.50;62.50
47857;DHT22;33618;49.972;8.242;2023-07-13T14:01:47;26.70;62.00
47857;DHT22;33618;49.972;8.242;2023-07-13T14:04:19;26.50;62.60
47857;DHT22;33618;49.972;8.242;2023-07-13T14:06:47;26.50;61.90
47857;DHT22;33618;49.972;8.242;2023-07-13T14:09:16;26.90;61.70
47857;DHT22;33618;49.972;8.242;2023-07-13T14:11:45;26.90;62.00
47857;DHT22;33618;49.972;8.242;2023-07-13T14:14:20;26.10;62.90
47857;DHT22;33618;49.972;8.242;2023-07-13T14:16:50;25.80;63.50
47857;DHT22;33618;49.972;8.242;2023-07-13T14:19:22;25.60;63.90
47857;DHT22;33618;49.972;8.242;2023-07-13T14:21:49;25.50;64.10
47857;DHT22;33618;49.972;8.242;2023-07-13T14:24:16;25.40;64.10
47857;DHT22;33618;49.972;8.242;2023-07-13T14:26:46;25.40;64.10
47857;DHT22;33618;49.972;8.242;2023-07-13T14:29:17;25.20;63.90
47857;DHT22;33618;49.972;8.242;2023-07-13T14:31:49;25.20;64.10
47857;DHT22;33618;49.972;8.242;2023-07-13T14:34:16;25.10;64.10
47857;DHT22;33618;49.972;8.242;2023-07-13T14:36:45;25.10;64.10
47857;DHT22;33618;49.972;8.242;2023-07-13T14:39:19;25.20;64.70
47857;DHT22;33618;49.972;8.242;2023-07-13T14:41:52;25.30;63.90
47857;DHT22;33618;49.972;8.242;2023-07-13T14:44:28;25.30;63.70
47857;DHT22;33618;49.972;8.242;2023-07-13T14:47:00;25.30;63.80
47857;DHT22;33618;49.972;8.242;2023-07-13T14:49:37;25.40;63.90
47857;DHT22;33618;49.972;8.242;2023-07-13T14:52:15;25.40;63.70
47857;DHT22;33618;49.972;8.242;2023-07-13T14:54:43;25.20;64.20
47857;DHT22;33618;49.972;8.242;2023-07-13T14:57:16;25.20;63.80
47857;DHT22;33618;49.972;8.242;2023-07-13T14:59:43;25.20;63.60
47857;DHT22;33618;49.972;8.242;2023-07-13T15:02:27;25.40;64.10
47857;DHT22;33618;49.972;8.242;2023-07-13T15:04:54;25.50;63.70
47857;DHT22;33618;49.972;8.242;2023-07-13T15:07:21;25.40;63.30
47857;DHT22;33618;49.972;8.242;2023-07-13T15:09:50;25.30;63.50
47857;DHT22;33618;49.972;8.242;2023-07-13T15:12:18;25.40;63.70
47857;DHT22;33618;49.972;8.242;2023-07-13T15:14:45;25.40;63.80
47857;DHT22;33618;49.972;8.242;2023-07-13T15:17:27;25.60;63.80
47857;DHT22;33618;49.972;8.242;2023-07-13T15:19:58;26.30;63.20
47857;DHT22;33618;49.972;8.242;2023-07-13T15:22:25;27.00;62.80
47857;DHT22;33618;49.972;8.242;2023-07-13T15:24:52;27.20;62.40
47857;DHT22;33618;49.972;8.242;2023-07-13T15:27:19;26.90;62.20
47857;DHT22;33618;49.972;8.242;2023-07-13T15:29:46;26.80;62.50
47857;DHT22;33618;49.972;8.242;2023-07-13T15:32:14;27.00;62.30
47857;DHT22;33618;49.972;8.242;2023-07-13T15:34:41;27.20;62.30
47857;DHT22;33618;49.972;8.242;2023-07-13T15:37:15;27.50;62.30
47857;DHT22;33618;49.972;8.242;2023-07-13T15:39:42;27.60;61.70
47857;DHT22;33618;49.972;8.242;2023-07-13T15:42:17;27.40;61.70
47857;DHT22;33618;49.972;8.242;2023-07-13T15:44:45;27.20;62.00
47857;DHT22;33618;49.972;8.242;2023-07-13T15:47:13;27.30;62.00
47857;DHT22;33618;49.972;8.242;2023-07-13T15:49:41;27.70;61.60
47857;DHT22;33618;49.972;8.242;2023-07-13T15:52:20;28.10;61.50
47857;DHT22;33618;49.972;8.242;2023-07-13T15:54:49;28.40;61.40
47857;DHT22;33618;49.972;8.242;2023-07-13T15:57:17;28.50;61.30
47857;DHT22;33618;49.972;8.242;2023-07-13T15:59:44;28.60;61.20
47857;DHT22;33618;49.972;8.242;2023-07-13T16:02:20;28.60;61.10
47857;DHT22;33618;49.972;8.242;2023-07-13T16:04:47;28.80;61.20
47857;DHT22;33618;49.972;8.242;2023-07-13T16:07:16;28.70;60.70
47857;DHT22;33618;49.972;8.242;2023-07-13T16:09:47;28.70;60.80
47857;DHT22;33618;49.972;8.242;2023-07-13T16:12:16;28.90;60.90
47857;DHT22;33618;49.972;8.242;2023-07-13T16:14:44;28.80;60.50
47857;DHT22;33618;49.972;8.242;2023-07-13T16:17:12;28.80;60.70
47857;DHT22;33618;49.972;8.242;2023-07-13T16:19:41;29.10;61.10
47857;DHT22;33618;49.972;8.242;2023-07-13T16:22:15;29.20;61.30
47857;DHT22;33618;49.972;8.242;2023-07-13T16:24:43;28.90;60.90
47857;DHT22;33618;49.972;8.242;2023-07-13T16:27:12;28.60;60.80
47857;DHT22;33618;49.972;8.242;2023-07-13T16:29:39;28.70;60.80
47857;DHT22;33618;49.972;8.242;2023-07-13T16:32:13;27.90;61.00
47857;DHT22;33618;49.972;8.242;2023-07-13T16:34:44;27.30;61.10
47857;DHT22;33618;49.972;8.242;2023-07-13T16:37:22;27.00;61.80
47857;DHT22;33618;49.972;8.242;2023-07-13T16:39:56;26.50;61.80
47857;DHT22;33618;49.972;8.242;2023-07-13T16:42:25;26.20;62.20
47857;DHT22;33618;49.972;8.242;2023-07-13T16:44:52;26.10;62.50